sensor_id;sensor_type;location;lat;lon;timestamp;pressure;altitude;pressure_sealevel;temperature;humidity
48622;BME280;34421;48.944;9.460;2023-01-28T00:01:10;99126.88;;;3.94;60.22
48622;BME280;34421;48.944;9.460;2023-01-28T00:03:36;99122.13;;;3.97;61.41
48622;BME280;34421;48.944;9.460;2023-01-28T00:06:06;99115.72;;;4.00;61.10
48622;BME280;34421;48.944;9.460;2023-01-28T00:08:32;99118.75;;;4.05;60.64
48622;BME280;34421;48.944;9.460;2023-01-28T00:11:00;99120.38;;;4.06;60.30
48622;BME280;34421;48.944;9.460;2023-01-28T00:13:26;99119.09;;;4.10;61.03
48622;BME280;34421;48.944;9.460;2023-01-28T00:15:55;99117.59;;;4.07;60.87
48622;BME280;34421;48.944;9.460;2023-01-28T00:18:21;99113.47;;;4.05;61.59
48622;BME280;34421;48.944;9.460;2023-01-28T00:20:59;99120.38;;;4.06;61.30
48622;BME280;34421;48.944;9.460;2023-01-28T00:23:25;99127.16;;;4.08;60.82
48622;BME280;34421;48.944;9.460;2023-01-28T00:25:51;99118.75;;;4.05;60.53
48622;BME280;34421;48.944;9.460;2023-01-28T00:28:16;99109.69;;;4.07;61.64
48622;BME280;34421;48.944;9.460;2023-01-28T00:30:42;99110.00;;;4.04;62.17
48622;BME280;34421;48.944;9.460;2023-01-28T00:33:07;99106.53;;;4.04;60.96
48622;BME280;34421;48.944;9.460;2023-01-28T00:35:32;99108.19;;;4.05;61.31
48622;BME280;34421;48.944;9.460;2023-01-28T00:37:57;99109.84;;;4.06;61.81
48622;BME280;34421;48.944;9.460;2023-01-28T00:40:24;99103.59;;;4.07;60.47
48622;BME280;34421;48.944;9.460;2023-01-28T00:42:49;99101.25;;;4.04;61.24
48622;BME280;34421;48.944;9.460;2023-01-28T00:45:14;99092.16;;;3.98;61.87
48622;BME280;34421;48.944;9.460;2023-01-28T00:47:39;99099.53;;;3.95;60.90
48622;BME280;34421;48.944;9.460;2023-01-28T00:50:05;99094.88;;;3.88;60.89
48622;BME280;34421;48.944;9.460;2023-01-28T00:52:30;99104.59;;;3.88;61.67
48622;BME280;34421;48.944;9.460;2023-01-28T00:54:55;99102.78;;;3.88;61.16
48622;BME280;34421;48.944;9.460;2023-01-28T00:57:21;99105.81;;;3.94;62.07
48622;BME280;34421;48.944;9.460;2023-01-28T00:59:46;99099.91;;;4.00;62.29
48622;BME280;34421;48.944;9.460;2023-01-28T01:02:12;99107.22;;;4.06;60.41
48622;BME280;34421;48.944;9.460;2023-01-28T01:04:37;99101.78;;;4.07;60.96
48622;BME280;34421;48.944;9.460;2023-01-28T01:07:02;99103.13;;;4.11;60.82
48622;BME280;34421;48.944;9.460;2023-01-28T01:09:28;99102.00;;;4.14;60.38
48622;BME280;34421;48.944;9.460;2023-01-28T01:11:53;99105.78;;;4.11;61.34
48622;BME280;34421;48.944;9.460;2023-01-28T01:14:18;99107.28;;;4.14;61.20
48622;BME280;34421;48.944;9.460;2023-01-28T01:16:43;99113.19;;;4.16;60.64
48622;BME280;34421;48.944;9.460;2023-01-28T01:19:11;99110.44;;;4.18;59.54
48622;BME280;34421;48.944;9.460;2023-01-28T01:21:36;99108.94;;;4.15;60.31
48622;BME280;34421;48.944;9.460;2023-01-28T01:24:02;99108.94;;;4.15;60.83
48622;BME280;34421;48.944;9.460;2023-01-28T01:26:27;99111.72;;;4.14;60.80
48622;BME280;34421;48.944;9.460;2023-01-28T01:28:52;99112.56;;;4.14;60.01
48622;BME280;34421;48.944;9.460;2023-01-28T01:31:18;99109.91;;;4.14;60.34
48622;BME280;34421;48.944;9.460;2023-01-28T01:33:45;99112.56;;;4.14;60.16
48622;BME280;34421;48.944;9.460;2023-01-28T01:36:11;99110.88;;;4.13;60.18
48622;BME280;34421;48.944;9.460;2023-01-28T01:38:36;99120.16;;;4.17;61.16
48622;BME280;34421;48.944;9.460;2023-01-28T01:41:02;99123.09;;;4.14;60.04
48622;BME280;34421;48.944;9.460;2023-01-28T01:46:11;99119.63;;;4.14;60.93
48622;BME280;34421;48.944;9.460;2023-01-28T01:48:36;99123.41;;;4.11;60.24
48622;BME280;34421;48.944;9.460;2023-01-28T01:51:06;99118.94;;;4.11;60.82
48622;BME280;34421;48.944;9.460;2023-01-28T01:53:33;99116.47;;;4.10;61.72
48622;BME280;34421;48.944;9.460;2023-01-28T01:56:00;99120.09;;;4.09;60.42
48622;BME280;34421;48.944;9.460;2023-01-28T01:58:27;99116.47;;;4.10;61.13
48622;BME280;34421;48.944;9.460;2023-01-28T02:00:53;99112.84;;;4.11;62.14
48622;BME280;34421;48.944;9.460;2023-01-28T02:03:20;99123.09;;;4.14;62.35
48622;BME280;34421;48.944;9.460;2023-01-28T02:05:49;99122.78;;;4.17;61.46
48622;BME280;34421;48.944;9.460;2023-01-28T02:08:14;99122.47;;;4.20;60.63
48622;BME280;34421;48.944;9.460;2023-01-28T02:10:47;99121.13;;;4.16;61.54
48622;BME280;34421;48.944;9.460;2023-01-28T02:13:13;99117.13;;;4.12;60.42
48622;BME280;34421;48.944;9.460;2023-01-28T02:15:39;99124.91;;;4.14;61.31
48622;BME280;34421;48.944;9.460;2023-01-28T02:18:06;99119.34;;;4.17;61.86
48622;BME280;34421;48.944;9.460;2023-01-28T02:20:45;99127.25;;;4.17;60.76
48622;BME280;34421;48.944;9.460;2023-01-28T02:33:49;99129.03;;;4.16;61.37
48622;BME280;34421;48.944;9.460;2023-01-28T02:36:27;99129.72;;;4.18;60.82
48622;BME280;34421;48.944;9.460;2023-01-28T02:38:54;99130.53;;;4.19;60.35
48622;BME280;34421;48.944;9.460;2023-01-28T02:41:29;99132.03;;;4.21;60.39
48622;BME280;34421;48.944;9.460;2023-01-28T02:43:56;99131.22;;;4.21;61.27
48622;BME280;34421;48.944;9.460;2023-01-28T02:49:07;99134.66;;;4.21;61.48
48622;BME280;34421;48.944;9.460;2023-01-28T02:51:52;99137.31;;;4.21;61.51
48622;BME280;34421;48.944;9.460;2023-01-28T02:59:41;99142.44;;;4.23;61.34
48622;BME280;34421;48.944;9.460;2023-01-28T03:02:14;99144.69;;;4.18;61.35
48622;BME280;34421;48.944;9.460;2023-01-28T03:07:20;99143.19;;;4.15;61.77
48622;BME280;34421;48.944;9.460;2023-01-28T03:09:46;99145.69;;;4.17;62.47
48622;BME280;34421;48.944;9.460;2023-01-28T03:12:19;99146.66;;;4.16;61.78
48622;BME280;34421;48.944;9.460;2023-01-28T03:15:06;99146.13;;;4.12;61.31
48622;BME280;34421;48.944;9.460;2023-01-28T03:17:53;99140.84;;;4.12;62.18
48622;BME280;34421;48.944;9.460;2023-01-28T03:20:40;99147.78;;;4.13;63.41
48622;BME280;34421;48.944;9.460;2023-01-28T03:23:27;99141.53;;;4.14;62.54
48622;BME280;34421;48.944;9.460;2023-01-28T03:26:11;99136.56;;;4.11;62.29
48622;BME280;34421;48.944;9.460;2023-01-28T03:28:57;99146.94;;;4.13;62.39
48622;BME280;34421;48.944;9.460;2023-01-28T03:31:47;99143.34;;;4.14;62.85
48622;BME280;34421;48.944;9.460;2023-01-28T03:34:30;99142.50;;;4.13;62.88
48622;BME280;34421;48.944;9.460;2023-01-28T03:37:14;99150.78;;;4.18;64.50
48622;BME280;34421;48.944;9.460;2023-01-28T03:39:40;99145.22;;;4.21;63.04
48622;BME280;34421;48.944;9.460;2023-01-28T03:42:06;99147.47;;;4.16;63.07
48622;BME280;34421;48.944;9.460;2023-01-28T03:44:32;99156.66;;;4.12;64.09
48622;BME280;34421;48.944;9.460;2023-01-28T03:47:16;99152.38;;;4.11;64.07
48622;BME280;34421;48.944;9.460;2023-01-28T03:49:45;99161.56;;;4.07;64.34
48622;BME280;34421;48.944;9.460;2023-01-28T03:52:13;99160.34;;;4.01;64.89
48622;BME280;34421;48.944;9.460;2023-01-28T03:54:39;99160.13;;;3.95;65.22
48622;BME280;34421;48.944;9.460;2023-01-28T03:57:05;99165.41;;;3.95;65.88
48622;BME280;34421;48.944;9.460;2023-01-28T03:59:30;99158.31;;;3.95;64.80
48622;BME280;34421;48.944;9.460;2023-01-28T04:01:56;99162.63;;;3.96;64.89
48622;BME280;34421;48.944;9.460;2023-01-28T04:04:21;99159.84;;;3.98;65.98
48622;BME280;34421;48.944;9.460;2023-01-28T04:06:52;99155.38;;;3.98;65.07
48622;BME280;34421;48.944;9.460;2023-01-28T04:09:21;99148.34;;;3.99;65.83
48622;BME280;34421;48.944;9.460;2023-01-28T04:11:47;99147.47;;;3.98;65.25
48622;BME280;34421;48.944;9.460;2023-01-28T04:14:13;99150.28;;;3.97;65.20
48622;BME280;34421;48.944;9.460;2023-01-28T04:16:39;99154.88;;;3.95;65.95
48622;BME280;34421;48.944;9.460;2023-01-28T04:19:04;99163.75;;;3.94;66.30
48622;BME280;34421;48.944;9.460;2023-01-28T04:21:29;99165.41;;;3.95;66.12
48622;BME280;34421;48.944;9.460;2023-01-28T04:23:55;99169.41;;;3.99;65.81
48622;BME280;34421;48.944;9.460;2023-01-28T04:26:20;99161.88;;;4.04;65.59
48622;BME280;34421;48.944;9.460;2023-01-28T04:28:45;99165.88;;;4.08;66.51
48622;BME280;34421;48.944;9.460;2023-01-28T04:31:10;99175.72;;;4.06;65.64
48622;BME280;34421;48.944;9.460;2023-01-28T04:33:35;99177.25;;;4.08;65.81
48622;BME280;34421;48.944;9.460;2023-01-28T04:36:01;99181.38;;;4.11;65.90
48622;BME280;34421;48.944;9.460;2023-01-28T04:38:26;99187.16;;;4.15;65.49
48622;BME280;34421;48.944;9.460;2023-01-28T04:40:51;99182.72;;;4.15;65.20
48622;BME280;34421;48.944;9.460;2023-01-28T04:43:17;99194.09;;;4.16;65.85
48622;BME280;34421;48.944;9.460;2023-01-28T04:45:43;99195.91;;;4.15;65.16
48622;BME280;34421;48.944;9.460;2023-01-28T04:48:09;99187.16;;;4.15;66.05
48622;BME280;34421;48.944;9.460;2023-01-28T04:50:34;99189.28;;;4.11;65.54
48622;BME280;34421;48.944;9.460;2023-01-28T04:52:59;99200.13;;;4.08;66.10
48622;BME280;34421;48.944;9.460;2023-01-28T04:55:24;99183.63;;;4.06;66.22
48622;BME280;34421;48.944;9.460;2023-01-28T04:57:50;99188.22;;;4.04;66.00
48622;BME280;34421;48.944;9.460;2023-01-28T05:00:15;99190.84;;;4.04;65.62
48622;BME280;34421;48.944;9.460;2023-01-28T05:02:40;99198.09;;;4.02;66.85
48622;BME280;34421;48.944;9.460;2023-01-28T05:05:06;99199.44;;;4.06;66.98
48622;BME280;34421;48.944;9.460;2023-01-28T05:07:33;99199.59;;;4.04;66.09
48622;BME280;34421;48.944;9.460;2023-01-28T05:09:58;99190.03;;;4.03;66.65
48622;BME280;34421;48.944;9.460;2023-01-28T05:12:23;99192.66;;;4.03;65.63
48622;BME280;34421;48.944;9.460;2023-01-28T05:14:48;99194.47;;;4.03;66.06
48622;BME280;34421;48.944;9.460;2023-01-28T05:17:14;99200.75;;;4.02;65.86
48622;BME280;34421;48.944;9.460;2023-01-28T05:19:39;99200.03;;;4.00;67.28
48622;BME280;34421;48.944;9.460;2023-01-28T05:22:04;99197.41;;;4.00;66.66
48622;BME280;34421;48.944;9.460;2023-01-28T05:24:29;99196.41;;;4.01;65.93
48622;BME280;34421;48.944;9.460;2023-01-28T05:26:54;99192.53;;;4.05;65.97
48622;BME280;34421;48.944;9.460;2023-01-28T05:29:20;99198.31;;;4.08;66.25
48622;BME280;34421;48.944;9.460;2023-01-28T05:31:46;99196.81;;;4.06;65.91
48622;BME280;34421;48.944;9.460;2023-01-28T05:34:11;99203.38;;;4.02;66.23
48622;BME280;34421;48.944;9.460;2023-01-28T05:36:37;99204.72;;;4.06;66.23
48622;BME280;34421;48.944;9.460;2023-01-28T05:39:02;99202.53;;;4.01;67.36
48622;BME280;34421;48.944;9.460;2023-01-28T05:41:27;99210.88;;;3.97;67.92
48622;BME280;34421;48.944;9.460;2023-01-28T05:43:53;99203.66;;;3.99;67.68
48622;BME280;34421;48.944;9.460;2023-01-28T05:46:18;99200.34;;;3.97;67.61
48622;BME280;34421;48.944;9.460;2023-01-28T05:48:43;99204.63;;;3.98;67.74
48622;BME280;34421;48.944;9.460;2023-01-28T05:51:09;99198.94;;;4.02;68.34
48622;BME280;34421;48.944;9.460;2023-01-28T05:53:34;99193.78;;;4.01;67.49
48622;BME280;34421;48.944;9.460;2023-01-28T05:55:59;99200.34;;;3.97;68.34
48622;BME280;34421;48.944;9.460;2023-01-28T05:58:25;99202.00;;;3.98;66.97
48622;BME280;34421;48.944;9.460;2023-01-28T06:00:55;99190.13;;;3.94;68.70
48622;BME280;34421;48.944;9.460;2023-01-28T06:03:21;99206.75;;;3.94;67.20
48622;BME280;34421;48.944;9.460;2023-01-28T06:05:47;99209.38;;;3.94;67.39
48622;BME280;34421;48.944;9.460;2023-01-28T06:08:12;99213.66;;;3.95;67.44
48622;BME280;34421;48.944;9.460;2023-01-28T06:10:37;99216.56;;;4.02;68.44
48622;BME280;34421;48.944;9.460;2023-01-28T06:13:02;99224.97;;;4.05;67.16
48622;BME280;34421;48.944;9.460;2023-01-28T06:15:27;99225.88;;;4.14;66.96
48622;BME280;34421;48.944;9.460;2023-01-28T06:17:53;99236.13;;;4.17;67.82
48622;BME280;34421;48.944;9.460;2023-01-28T06:20:18;99229.88;;;4.18;67.92
48622;BME280;34421;48.944;9.460;2023-01-28T06:22:43;99243.94;;;4.27;67.26
48622;BME280;34421;48.944;9.460;2023-01-28T06:25:08;99231.44;;;4.29;67.03
48622;BME280;34421;48.944;9.460;2023-01-28T06:27:34;99250.22;;;4.26;67.44
48622;BME280;34421;48.944;9.460;2023-01-28T06:29:59;99257.50;;;4.32;66.02
48622;BME280;34421;48.944;9.460;2023-01-28T06:32:26;99249.75;;;4.30;67.30
48622;BME280;34421;48.944;9.460;2023-01-28T06:34:51;99252.25;;;4.32;65.70
48622;BME280;34421;48.944;9.460;2023-01-28T06:37:16;99249.44;;;4.33;67.22
48622;BME280;34421;48.944;9.460;2023-01-28T06:39:42;99245.84;;;4.34;67.03
48622;BME280;34421;48.944;9.460;2023-01-28T06:42:07;99257.72;;;4.39;65.84
48622;BME280;34421;48.944;9.460;2023-01-28T06:44:32;99254.78;;;4.42;65.96
48622;BME280;34421;48.944;9.460;2023-01-28T06:46:57;99263.81;;;4.39;67.07
48622;BME280;34421;48.944;9.460;2023-01-28T06:49:23;99270.91;;;4.39;67.02
48622;BME280;34421;48.944;9.460;2023-01-28T06:51:48;99258.56;;;4.39;66.97
48622;BME280;34421;48.944;9.460;2023-01-28T06:54:13;99280.47;;;4.40;66.16
48622;BME280;34421;48.944;9.460;2023-01-28T06:56:39;99280.84;;;4.45;65.65
48622;BME280;34421;48.944;9.460;2023-01-28T06:59:04;99272.50;;;4.49;66.07
48622;BME280;34421;48.944;9.460;2023-01-28T07:01:29;99273.97;;;4.52;65.96
48622;BME280;34421;48.944;9.460;2023-01-28T07:03:55;99279.63;;;4.57;65.16
48622;BME280;34421;48.944;9.460;2023-01-28T07:06:20;99278.91;;;4.65;64.89
48622;BME280;34421;48.944;9.460;2023-01-28T07:08:45;99276.38;;;4.63;65.50
48622;BME280;34421;48.944;9.460;2023-01-28T07:11:11;99281.66;;;4.63;65.72
48622;BME280;34421;48.944;9.460;2023-01-28T07:13:36;99280.53;;;4.66;65.62
48622;BME280;34421;48.944;9.460;2023-01-28T07:16:01;99278.72;;;4.66;64.39
48622;BME280;34421;48.944;9.460;2023-01-28T07:18:27;99281.34;;;4.66;64.07
48622;BME280;34421;48.944;9.460;2023-01-28T07:20:53;99286.19;;;4.71;65.35
48622;BME280;34421;48.944;9.460;2023-01-28T07:23:18;99280.44;;;4.75;64.69
48622;BME280;34421;48.944;9.460;2023-01-28T07:25:43;99287.75;;;4.82;65.32
48622;BME280;34421;48.944;9.460;2023-01-28T07:28:08;99294.00;;;4.80;65.22
48622;BME280;34421;48.944;9.460;2023-01-28T07:30:34;99297.84;;;4.86;63.89
48622;BME280;34421;48.944;9.460;2023-01-28T07:32:59;99293.78;;;4.92;63.41
48622;BME280;34421;48.944;9.460;2023-01-28T07:35:24;99296.94;;;4.95;64.22
48622;BME280;34421;48.944;9.460;2023-01-28T07:37:50;99294.59;;;4.92;62.88
48622;BME280;34421;48.944;9.460;2023-01-28T07:40:16;99296.78;;;4.97;63.19
48622;BME280;34421;48.944;9.460;2023-01-28T07:42:41;99302.88;;;4.97;63.93
48622;BME280;34421;48.944;9.460;2023-01-28T07:45:07;99300.25;;;4.97;62.99
48622;BME280;34421;48.944;9.460;2023-01-28T07:47:32;99300.44;;;5.04;62.95
48622;BME280;34421;48.944;9.460;2023-01-28T07:49:57;99300.34;;;5.14;62.81
48622;BME280;34421;48.944;9.460;2023-01-28T07:52:22;99302.53;;;5.18;62.61
48622;BME280;34421;48.944;9.460;2023-01-28T07:54:48;99312.47;;;5.24;63.57
48622;BME280;34421;48.944;9.460;2023-01-28T07:57:13;99311.66;;;5.24;62.45
48622;BME280;34421;48.944;9.460;2023-01-28T07:59:38;99310.50;;;5.27;63.43
48622;BME280;34421;48.944;9.460;2023-01-28T08:02:03;99310.50;;;5.27;63.35
48622;BME280;34421;48.944;9.460;2023-01-28T08:04:28;99321.22;;;5.25;63.94
48622;BME280;34421;48.944;9.460;2023-01-28T08:06:54;99316.13;;;5.32;63.98
48622;BME280;34421;48.944;9.460;2023-01-28T08:09:19;99306.13;;;5.43;62.76
48622;BME280;34421;48.944;9.460;2023-01-28T08:11:44;99322.84;;;5.52;63.17
48622;BME280;34421;48.944;9.460;2023-01-28T08:14:10;99317.63;;;5.60;61.85
48622;BME280;34421;48.944;9.460;2023-01-28T08:16:35;99321.97;;;5.69;62.47
48622;BME280;34421;48.944;9.460;2023-01-28T08:19:00;99319.31;;;5.69;61.76
48622;BME280;34421;48.944;9.460;2023-01-28T08:21:26;99324.28;;;5.72;62.02
48622;BME280;34421;48.944;9.460;2023-01-28T08:23:52;99325.63;;;5.77;60.85
48622;BME280;34421;48.944;9.460;2023-01-28T08:26:17;99325.97;;;5.82;60.53
48622;BME280;34421;48.944;9.460;2023-01-28T08:28:42;99331.75;;;5.85;61.08
48622;BME280;34421;48.944;9.460;2023-01-28T08:31:07;99331.31;;;5.90;61.00
48622;BME280;34421;48.944;9.460;2023-01-28T08:33:33;99332.50;;;5.96;59.65
48622;BME280;34421;48.944;9.460;2023-01-28T08:36:00;99337.81;;;5.96;60.53
48622;BME280;34421;48.944;9.460;2023-01-28T08:38:26;99339.69;;;5.85;59.52
48622;BME280;34421;48.944;9.460;2023-01-28T08:40:51;99341.69;;;5.83;59.92
48622;BME280;34421;48.944;9.460;2023-01-28T08:43:19;99333.13;;;5.89;59.69
48622;BME280;34421;48.944;9.460;2023-01-28T08:45:44;99331.97;;;5.92;59.25
48622;BME280;34421;48.944;9.460;2023-01-28T08:48:10;99323.91;;;5.93;59.40
48622;BME280;34421;48.944;9.460;2023-01-28T08:50:37;99331.38;;;5.98;59.81
48622;BME280;34421;48.944;9.460;2023-01-28T08:53:12;99329.88;;;6.04;59.26
48622;BME280;34421;48.944;9.460;2023-01-28T08:55:37;99332.06;;;6.08;59.19
48622;BME280;34421;48.944;9.460;2023-01-28T08:58:03;99337.50;;;6.07;59.30
48622;BME280;34421;48.944;9.460;2023-01-28T09:00:29;99326.75;;;6.08;59.78
48622;BME280;34421;48.944;9.460;2023-01-28T09:02:54;99330.41;;;6.15;59.19
48622;BME280;34421;48.944;9.460;2023-01-28T09:05:20;99338.06;;;6.27;59.30
48622;BME280;34421;48.944;9.460;2023-01-28T09:07:45;99335.09;;;6.30;58.98
48622;BME280;34421;48.944;9.460;2023-01-28T09:10:11;99339.06;;;6.42;58.43
48622;BME280;34421;48.944;9.460;2023-01-28T09:12:36;99343.72;;;6.48;57.71
48622;BME280;34421;48.944;9.460;2023-01-28T09:15:02;99342.72;;;6.41;57.87
48622;BME280;34421;48.944;9.460;2023-01-28T09:17:27;99345.69;;;6.38;57.72
48622;BME280;34421;48.944;9.460;2023-01-28T09:19:52;99339.41;;;6.39;58.03
48622;BME280;34421;48.944;9.460;2023-01-28T09:22:17;99353.63;;;6.38;57.12
48622;BME280;34421;48.944;9.460;2023-01-28T09:24:43;99356.09;;;6.31;57.03
48622;BME280;34421;48.944;9.460;2023-01-28T09:27:08;99367.16;;;6.27;57.33
48622;BME280;34421;48.944;9.460;2023-01-28T09:29:33;99363.81;;;6.16;56.99
48622;BME280;34421;48.944;9.460;2023-01-28T09:31:59;99371.22;;;6.05;58.04
48622;BME280;34421;48.944;9.460;2023-01-28T09:34:24;99368.53;;;5.97;58.47
48622;BME280;34421;48.944;9.460;2023-01-28T09:36:49;99370.66;;;5.93;58.31
48622;BME280;34421;48.944;9.460;2023-01-28T09:39:14;99373.72;;;5.88;57.92
48622;BME280;34421;48.944;9.460;2023-01-28T09:44:18;99383.47;;;5.88;58.88
48622;BME280;34421;48.944;9.460;2023-01-28T09:46:48;99389.91;;;5.85;58.86
48622;BME280;34421;48.944;9.460;2023-01-28T09:49:26;99388.06;;;5.78;59.33
48622;BME280;34421;48.944;9.460;2023-01-28T09:51:53;99391.16;;;5.73;59.54
48622;BME280;34421;48.944;9.460;2023-01-28T09:56:52;99397.28;;;5.74;59.87
48622;BME280;34421;48.944;9.460;2023-01-28T09:59:21;99396.81;;;5.78;59.15
48622;BME280;34421;48.944;9.460;2023-01-28T10:01:49;99395.00;;;5.79;59.87
48622;BME280;34421;48.944;9.460;2023-01-28T10:14:42;99382.06;;;5.93;59.81
48622;BME280;34421;48.944;9.460;2023-01-28T10:20:05;99367.75;;;6.12;59.22
48622;BME280;34421;48.944;9.460;2023-01-28T10:22:34;99368.97;;;6.26;58.35
48622;BME280;34421;48.944;9.460;2023-01-28T10:25:03;99369.81;;;6.35;57.59
48622;BME280;34421;48.944;9.460;2023-01-28T10:27:31;99368.84;;;6.44;57.61
48622;BME280;34421;48.944;9.460;2023-01-28T10:29:57;99380.13;;;6.54;57.23
48622;BME280;34421;48.944;9.460;2023-01-28T10:32:29;99374.84;;;6.54;56.84
48622;BME280;34421;48.944;9.460;2023-01-28T10:34:55;99361.28;;;6.57;56.52
48622;BME280;34421;48.944;9.460;2023-01-28T10:37:23;99368.03;;;6.60;57.17
48622;BME280;34421;48.944;9.460;2023-01-28T10:39:49;99366.91;;;6.62;56.72
48622;BME280;34421;48.944;9.460;2023-01-28T10:42:31;99366.25;;;6.60;56.72
48622;BME280;34421;48.944;9.460;2023-01-28T10:44:58;99362.59;;;6.61;56.26
48622;BME280;34421;48.944;9.460;2023-01-28T10:47:32;99365.56;;;6.58;56.81
48622;BME280;34421;48.944;9.460;2023-01-28T10:49:59;99373.50;;;6.50;56.43
48622;BME280;34421;48.944;9.460;2023-01-28T10:52:25;99371.16;;;6.47;56.77
48622;BME280;34421;48.944;9.460;2023-01-28T10:55:00;99368.03;;;6.44;56.31
48622;BME280;34421;48.944;9.460;2023-01-28T10:57:26;99374.78;;;6.38;56.34
48622;BME280;34421;48.944;9.460;2023-01-28T10:59:51;99373.47;;;6.34;56.59
48622;BME280;34421;48.944;9.460;2023-01-28T11:02:28;99372.28;;;6.28;57.00
48622;BME280;34421;48.944;9.460;2023-01-28T11:07:42;99378.03;;;6.24;57.37
48622;BME280;34421;48.944;9.460;2023-01-28T11:13:14;99368.94;;;6.18;57.92
48622;BME280;34421;48.944;9.460;2023-01-28T11:15:44;99373.41;;;6.18;57.43
48622;BME280;34421;48.944;9.460;2023-01-28T11:18:14;99379.19;;;6.21;57.65
48622;BME280;34421;48.944;9.460;2023-01-28T11:20:41;99376.22;;;6.24;57.38
48622;BME280;34421;48.944;9.460;2023-01-28T11:23:16;99371.78;;;6.25;57.15
48622;BME280;34421;48.944;9.460;2023-01-28T11:25:42;99383.00;;;6.27;58.00
48622;BME280;34421;48.944;9.460;2023-01-28T11:28:14;99376.91;;;6.26;57.30
48622;BME280;34421;48.944;9.460;2023-01-28T11:30:42;99372.94;;;6.22;57.99
48622;BME280;34421;48.944;9.460;2023-01-28T11:33:15;99384.47;;;6.21;57.24
48622;BME280;34421;48.944;9.460;2023-01-28T11:35:41;99383.97;;;6.18;57.42
48622;BME280;34421;48.944;9.460;2023-01-28T11:38:16;99380.03;;;6.22;57.49
48622;BME280;34421;48.944;9.460;2023-01-28T11:40:52;99376.41;;;6.23;58.55
48622;BME280;34421;48.944;9.460;2023-01-28T11:43:19;99383.00;;;6.27;57.80
48622;BME280;34421;48.944;9.460;2023-01-28T11:56:24;99383.59;;;6.04;58.88
48622;BME280;34421;48.944;9.460;2023-01-28T12:04:15;99378.78;;;6.00;59.84
48622;BME280;34421;48.944;9.460;2023-01-28T12:12:07;99380.84;;;5.88;59.96
48622;BME280;34421;48.944;9.460;2023-01-28T12:17:04;99384.16;;;5.90;61.75
48622;BME280;34421;48.944;9.460;2023-01-28T12:40:08;99374.22;;;5.84;61.03
48622;BME280;34421;48.944;9.460;2023-01-28T12:45:18;99376.88;;;5.84;60.40
48622;BME280;34421;48.944;9.460;2023-01-28T12:47:51;99372.88;;;5.80;60.09
48622;BME280;34421;48.944;9.460;2023-01-28T12:50:19;99369.91;;;5.83;60.57
48622;BME280;34421;48.944;9.460;2023-01-28T12:52:48;99374.88;;;5.86;61.26
48622;BME280;34421;48.944;9.460;2023-01-28T12:55:28;99371.25;;;5.87;60.08
48622;BME280;34421;48.944;9.460;2023-01-28T12:57:57;99365.97;;;5.87;59.75
48622;BME280;34421;48.944;9.460;2023-01-28T13:00:30;99368.31;;;5.90;60.72
48622;BME280;34421;48.944;9.460;2023-01-28T13:05:30;99365.38;;;5.93;60.49
48622;BME280;34421;48.944;9.460;2023-01-28T13:08:02;99357.81;;;5.98;59.37
48622;BME280;34421;48.944;9.460;2023-01-28T13:10:35;99364.75;;;5.99;59.87
48622;BME280;34421;48.944;9.460;2023-01-28T13:13:01;99366.38;;;6.00;59.30
48622;BME280;34421;48.944;9.460;2023-01-28T13:15:27;99368.06;;;6.01;59.89
48622;BME280;34421;48.944;9.460;2023-01-28T13:17:54;99363.91;;;5.99;59.01
48622;BME280;34421;48.944;9.460;2023-01-28T13:23:04;99367.03;;;5.94;58.93
48622;BME280;34421;48.944;9.460;2023-01-28T13:25:31;99349.38;;;6.03;58.62
48622;BME280;34421;48.944;9.460;2023-01-28T13:28:01;99365.63;;;6.16;59.06
48622;BME280;34421;48.944;9.460;2023-01-28T13:32:59;99365.19;;;6.29;57.82
48622;BME280;34421;48.944;9.460;2023-01-28T13:35:32;99368.50;;;6.31;57.79
48622;BME280;34421;48.944;9.460;2023-01-28T13:37:58;99370.97;;;6.32;57.83
48622;BME280;34421;48.944;9.460;2023-01-28T13:40:29;99377.75;;;6.35;56.95
48622;BME280;34421;48.944;9.460;2023-01-28T13:42:59;99376.44;;;6.31;57.30
48622;BME280;34421;48.944;9.460;2023-01-28T13:45:25;99378.22;;;6.30;56.53
48622;BME280;34421;48.944;9.460;2023-01-28T13:47:51;99383.00;;;6.27;56.74
48622;BME280;34421;48.944;9.460;2023-01-28T13:50:22;99380.50;;;6.17;56.89
48622;BME280;34421;48.944;9.460;2023-01-28T14:03:15;99379.28;;;6.46;57.10
48622;BME280;34421;48.944;9.460;2023-01-28T14:11:01;99392.91;;;6.75;56.51
48622;BME280;34421;48.944;9.460;2023-01-28T14:16:17;99398.19;;;6.83;56.96
48622;BME280;34421;48.944;9.460;2023-01-28T14:18:44;99391.56;;;6.71;56.24
48622;BME280;34421;48.944;9.460;2023-01-28T14:21:12;99401.63;;;6.59;57.07
48622;BME280;34421;48.944;9.460;2023-01-28T14:23:38;99408.19;;;6.39;57.81
48622;BME280;34421;48.944;9.460;2023-01-28T14:28:58;99407.97;;;6.24;58.23
48622;BME280;34421;48.944;9.460;2023-01-28T14:31:27;99405.44;;;6.14;57.86
48622;BME280;34421;48.944;9.460;2023-01-28T14:33:54;99414.53;;;6.12;57.52
48622;BME280;34421;48.944;9.460;2023-01-28T14:36:24;99419.97;;;6.10;58.43
48622;BME280;34421;48.944;9.460;2023-01-28T14:38:49;99419.97;;;6.10;58.43
48622;BME280;34421;48.944;9.460;2023-01-28T14:41:24;99419.00;;;6.11;57.73
48622;BME280;34421;48.944;9.460;2023-01-28T14:43:51;99425.06;;;6.04;58.47
48622;BME280;34421;48.944;9.460;2023-01-28T14:46:34;99432.00;;;6.05;57.81
48622;BME280;34421;48.944;9.460;2023-01-28T14:54:25;99436.78;;;6.01;57.13
48622;BME280;34421;48.944;9.460;2023-01-28T15:02:00;99443.13;;;5.90;56.56
48622;BME280;34421;48.944;9.460;2023-01-28T15:04:26;99446.22;;;5.86;56.59
48622;BME280;34421;48.944;9.460;2023-01-28T15:06:52;99436.16;;;5.81;56.69
48622;BME280;34421;48.944;9.460;2023-01-28T15:09:17;99455.63;;;5.80;58.31
48622;BME280;34421;48.944;9.460;2023-01-28T15:11:44;99451.69;;;5.84;57.22
48622;BME280;34421;48.944;9.460;2023-01-28T15:14:15;99459.44;;;5.86;57.76
48622;BME280;34421;48.944;9.460;2023-01-28T15:16:46;99454.34;;;5.84;57.35
48622;BME280;34421;48.944;9.460;2023-01-28T15:19:11;99456.16;;;5.84;57.62
48622;BME280;34421;48.944;9.460;2023-01-28T15:21:37;99463.25;;;5.83;58.38
48622;BME280;34421;48.944;9.460;2023-01-28T15:24:02;99456.97;;;5.84;58.19
48622;BME280;34421;48.944;9.460;2023-01-28T15:26:29;99461.44;;;5.84;57.68